createdAt,value
2022-11-29T00:02:54.150Z,17.50
2022-11-29T00:06:56.196Z,19.20
2022-11-29T00:11:04.088Z,18.80
2022-11-29T00:15:06.383Z,18.20
2022-11-29T00:19:10.576Z,19.10
2022-11-29T00:23:12.619Z,17.60
2022-11-29T00:27:14.582Z,17.20
2022-11-29T00:31:18.895Z,17.10
2022-11-29T00:35:20.930Z,18.80
2022-11-29T00:39:22.920Z,16.80
2022-11-29T00:43:24.831Z,19.20
2022-11-29T00:47:26.734Z,17.70
2022-11-29T00:51:28.665Z,19.10
2022-11-29T00:55:31.117Z,17.60
2022-11-29T00:59:33.030Z,18.40
2022-11-29T01:03:34.940Z,16.00
2022-11-29T01:07:36.921Z,15.80
2022-11-29T01:11:38.869Z,17.10
2022-11-29T01:15:41.678Z,16.30
2022-11-29T01:19:49.338Z,15.50
2022-11-29T01:23:53.474Z,16.70
2022-11-29T01:27:55.351Z,15.10
2022-11-29T01:31:57.269Z,15.60
2022-11-29T01:35:59.211Z,17.40
2022-11-29T01:40:01.429Z,16.40
2022-11-29T01:44:03.353Z,15.10
2022-11-29T01:48:05.986Z,16.20
2022-11-29T01:52:14.219Z,14.90
2022-11-29T01:56:16.416Z,16.70
2022-11-29T02:00:19.531Z,15.20
2022-11-29T02:04:21.839Z,15.80
2022-11-29T02:08:36.589Z,11.40
2022-11-29T02:12:51.115Z,16.40
2022-11-29T02:17:03.254Z,14.90
2022-11-29T02:21:29.137Z,14.30
2022-11-29T02:25:46.404Z,14.40
2022-11-29T02:30:23.836Z,15.70
2022-11-29T02:34:47.505Z,14.40
2022-11-29T02:39:10.789Z,15.80
2022-11-29T02:43:34.306Z,17.40
2022-11-29T02:47:51.472Z,15.40
2022-11-29T02:52:02.567Z,16.50
2022-11-29T02:56:16.578Z,15.70
2022-11-29T03:00:21.420Z,16.30
2022-11-29T03:04:33.602Z,16.00
2022-11-29T03:09:13.790Z,16.40
2022-11-29T03:17:51.043Z,17.00
2022-11-29T03:22:11.226Z,17.30
2022-11-29T03:26:34.033Z,17.80
2022-11-29T03:30:39.572Z,20.20
2022-11-29T03:35:02.507Z,17.20
2022-11-29T03:39:10.183Z,19.80
2022-11-29T03:43:21.882Z,22.10
2022-11-29T03:47:30.727Z,20.10
2022-11-29T03:55:56.501Z,21.00
2022-11-29T04:00:05.371Z,21.80
2022-11-29T04:04:40.693Z,20.80
2022-11-29T04:08:49.394Z,23.10
2022-11-29T04:13:12.698Z,22.20
2022-11-29T04:17:31.961Z,21.30
2022-11-29T04:26:19.444Z,22.70
2022-11-29T04:30:23.601Z,22.70
2022-11-29T04:34:28.620Z,22.70
2022-11-29T04:38:45.734Z,20.30
2022-11-29T04:43:10.472Z,21.60
2022-11-29T04:47:20.042Z,20.30
2022-11-29T04:51:50.716Z,21.20
2022-11-29T04:56:07.698Z,22.70
2022-11-29T05:00:15.418Z,21.80
2022-11-29T05:04:49.590Z,19.90
2022-11-29T05:09:02.655Z,20.20
2022-11-29T05:13:10.606Z,20.70
2022-11-29T05:17:50.080Z,20.40
2022-11-29T05:22:00.733Z,20.10
2022-11-29T05:26:32.384Z,18.80
2022-11-29T05:31:03.143Z,20.50
2022-11-29T05:35:11.452Z,17.30
2022-11-29T05:39:49.012Z,20.30
2022-11-29T05:43:59.483Z,16.30
2022-11-29T05:48:01.407Z,19.80
2022-11-29T05:52:24.899Z,18.30
2022-11-29T05:56:42.693Z,18.60
2022-11-29T06:00:48.432Z,16.00
2022-11-29T06:05:13.129Z,19.40
2022-11-29T06:09:19.039Z,19.60
2022-11-29T06:13:32.760Z,18.90
2022-11-29T06:18:02.091Z,19.50
2022-11-29T06:22:06.949Z,16.60
2022-11-29T06:26:17.872Z,17.30
2022-11-29T06:30:29.485Z,16.40
2022-11-29T06:34:46.127Z,16.00
2022-11-29T06:38:48.455Z,16.10
2022-11-29T06:42:50.615Z,14.60
2022-11-29T06:47:06.736Z,15.80
2022-11-29T06:51:27.003Z,16.30
2022-11-29T06:55:49.341Z,19.40
2022-11-29T07:00:03.960Z,16.60
2022-11-29T07:04:16.304Z,18.80
2022-11-29T07:08:21.100Z,18.50
2022-11-29T07:12:23.440Z,17.50
2022-11-29T07:16:57.582Z,16.50
2022-11-29T07:21:02.607Z,16.70
2022-11-29T07:25:29.674Z,17.30
2022-11-29T07:29:40.606Z,16.50
2022-11-29T07:34:00.771Z,16.80
2022-11-29T07:38:44.342Z,15.90
2022-11-29T07:43:07.673Z,16.00
2022-11-29T07:47:09.667Z,15.40
2022-11-29T07:51:12.155Z,13.50
2022-11-29T07:55:19.018Z,15.70
2022-11-29T07:59:21.381Z,16.30
2022-11-29T08:03:23.347Z,15.80
2022-11-29T08:07:25.447Z,17.30
2022-11-29T08:11:27.729Z,14.30
2022-11-29T08:15:29.745Z,16.30
2022-11-29T08:19:31.696Z,15.80
2022-11-29T08:23:33.688Z,15.70
2022-11-29T08:27:38.307Z,14.20
2022-11-29T08:31:40.458Z,14.40
2022-11-29T08:35:42.471Z,14.50
2022-11-29T08:39:44.390Z,13.50
2022-11-29T08:43:46.443Z,13.10
2022-11-29T08:47:48.337Z,15.50
2022-11-29T08:52:13.498Z,13.50
2022-11-29T09:00:44.985Z,16.90
2022-11-29T09:04:47.119Z,15.40
2022-11-29T09:08:49.232Z,16.60
2022-11-29T09:12:51.188Z,15.30
2022-11-29T09:16:53.170Z,15.10
2022-11-29T09:20:55.141Z,16.70
2022-11-29T09:24:57.099Z,15.90
2022-11-29T09:29:00.790Z,14.00
2022-11-29T09:33:04.327Z,13.70
2022-11-29T09:37:06.397Z,14.80
2022-11-29T09:41:47.068Z,14.20
2022-11-29T09:45:59.252Z,12.00
2022-11-29T09:50:29.833Z,14.30
2022-11-29T09:55:24.334Z,14.70
2022-11-29T09:59:31.951Z,15.20
2022-11-29T10:03:40.665Z,13.20
2022-11-29T10:07:50.987Z,14.20
2022-11-29T10:12:05.046Z,13.80
2022-11-29T10:16:36.044Z,14.50
2022-11-29T10:20:43.512Z,13.30
2022-11-29T10:24:51.943Z,18.00
2022-11-29T10:28:57.056Z,15.60
2022-11-29T10:33:00.387Z,14.20
